createdAt,value
2017-12-11T00:00:58.763Z,975.88
2017-12-11T00:01:58.777Z,975.8
2017-12-11T00:02:58.790Z,975.76
2017-12-11T00:03:58.806Z,975.78
2017-12-11T00:04:58.816Z,975.75
2017-12-11T00:05:58.829Z,975.7
2017-12-11T00:06:58.836Z,975.69
2017-12-11T00:07:58.855Z,975.83
2017-12-11T00:08:58.867Z,975.85
2017-12-11T00:09:58.887Z,975.81
2017-12-11T00:10:58.893Z,975.83
2017-12-11T00:11:58.906Z,975.9
2017-12-11T00:12:58.923Z,975.92
2017-12-11T00:14:58.953Z,975.77
2017-12-11T00:15:58.957Z,975.77
2017-12-11T00:16:58.977Z,975.77
2017-12-11T00:17:58.996Z,975.76
2017-12-11T00:18:58.996Z,975.71
2017-12-11T00:19:59.009Z,975.76
2017-12-11T00:20:59.027Z,975.77
2017-12-11T00:21:59.043Z,975.78
2017-12-11T00:22:59.055Z,975.76
2017-12-11T00:23:59.069Z,975.7
2017-12-11T00:24:59.086Z,975.68
2017-12-11T00:25:59.100Z,975.66
2017-12-11T00:26:59.114Z,975.66
2017-12-11T00:27:59.121Z,975.62
2017-12-11T00:28:59.129Z,975.65
2017-12-11T00:30:59.161Z,975.67
2017-12-11T00:31:59.170Z,975.7
2017-12-11T00:32:59.189Z,975.69
2017-12-11T00:33:59.202Z,975.71
2017-12-11T00:34:59.214Z,975.68
2017-12-11T00:35:59.223Z,975.59
2017-12-11T00:36:59.237Z,975.62
2017-12-11T00:37:59.262Z,975.6
2017-12-11T00:38:59.275Z,975.56
2017-12-11T00:39:59.287Z,975.59
2017-12-11T00:40:59.297Z,975.57
2017-12-11T00:41:59.304Z,975.57
2017-12-11T00:42:59.328Z,975.61
2017-12-11T00:43:59.335Z,975.57
2017-12-11T00:45:59.370Z,975.5
2017-12-11T00:46:59.378Z,975.53
2017-12-11T00:47:59.398Z,975.58
2017-12-11T00:48:59.412Z,975.55
2017-12-11T00:49:59.526Z,975.62
2017-12-11T00:50:59.436Z,975.61
2017-12-11T00:51:59.439Z,975.58
2017-12-11T00:52:59.456Z,975.64
2017-12-11T00:53:59.472Z,975.61
2017-12-11T00:54:59.486Z,975.64
2017-12-11T00:55:59.496Z,975.62
2017-12-11T00:56:59.569Z,975.62
2017-12-11T00:57:59.522Z,975.67
2017-12-11T00:58:59.538Z,975.67
2017-12-11T00:59:59.547Z,975.7
2017-12-11T01:00:59.562Z,975.66
2017-12-11T01:01:59.571Z,975.69
2017-12-11T01:02:59.585Z,975.63
2017-12-11T01:03:59.605Z,975.65
2017-12-11T01:04:59.617Z,975.63
2017-12-11T01:05:59.636Z,975.59
2017-12-11T01:06:59.639Z,975.6
2017-12-11T01:07:59.662Z,975.57
2017-12-11T01:08:59.676Z,975.52
2017-12-11T01:09:59.685Z,975.58
2017-12-11T01:10:59.701Z,975.58
2017-12-11T01:11:59.710Z,975.62
2017-12-11T01:12:59.729Z,975.55
2017-12-11T01:13:59.743Z,975.51
2017-12-11T01:14:59.750Z,975.6
2017-12-11T01:15:59.764Z,975.58
2017-12-11T01:17:59.789Z,975.68
2017-12-11T01:18:59.805Z,975.68
2017-12-11T01:19:59.811Z,975.67
2017-12-11T01:20:59.832Z,975.67
2017-12-11T01:21:59.842Z,975.68
2017-12-11T01:22:59.852Z,975.64
2017-12-11T01:23:59.864Z,975.68
2017-12-11T01:24:59.890Z,975.66
2017-12-11T01:25:59.902Z,975.59
2017-12-11T01:26:59.915Z,975.59
2017-12-11T01:27:59.924Z,975.62
2017-12-11T01:28:59.936Z,975.57
2017-12-11T01:29:59.949Z,975.54
2017-12-11T01:30:59.968Z,975.57
2017-12-11T01:31:59.982Z,975.63
2017-12-11T01:34:00.007Z,975.57
2017-12-11T01:35:00.011Z,975.55
2017-12-11T01:36:00.035Z,975.53
2017-12-11T01:37:00.044Z,975.58
2017-12-11T01:38:00.056Z,975.52
2017-12-11T01:39:00.076Z,975.48
2017-12-11T01:40:00.085Z,975.51
2017-12-11T01:41:00.099Z,975.5
2017-12-11T01:42:00.106Z,975.53
2017-12-11T01:43:00.119Z,975.51
2017-12-11T01:44:00.137Z,975.49
2017-12-11T01:45:00.161Z,975.47
2017-12-11T01:46:00.160Z,975.48
2017-12-11T01:47:00.181Z,975.53
2017-12-11T01:48:00.187Z,975.55
2017-12-11T01:50:00.214Z,975.55
2017-12-11T01:51:00.228Z,975.57
2017-12-11T01:52:00.242Z,975.57
2017-12-11T01:53:00.261Z,975.58
2017-12-11T01:54:00.273Z,975.64
2017-12-11T01:55:00.293Z,975.56
2017-12-11T01:56:00.296Z,975.65
2017-12-11T01:57:00.316Z,975.55
2017-12-11T01:58:00.324Z,975.59
2017-12-11T01:59:00.348Z,975.59
2017-12-11T02:00:00.355Z,975.6
2017-12-11T02:01:00.369Z,975.61
2017-12-11T02:02:00.379Z,975.64
2017-12-11T02:03:00.397Z,975.7
2017-12-11T02:04:00.413Z,975.61
2017-12-11T02:06:00.445Z,975.7
2017-12-11T02:07:00.453Z,975.71
2017-12-11T02:08:00.466Z,975.66
2017-12-11T02:09:00.490Z,975.68
2017-12-11T02:10:00.500Z,975.71
2017-12-11T02:11:00.511Z,975.78
2017-12-11T02:12:00.528Z,975.79
2017-12-11T02:13:00.532Z,975.77
2017-12-11T02:14:00.590Z,975.8
2017-12-11T02:15:00.560Z,975.86
2017-12-11T02:16:00.585Z,975.83
2017-12-11T02:17:00.598Z,975.87
2017-12-11T02:18:00.613Z,975.89
2017-12-11T02:19:00.624Z,975.9
2017-12-11T02:21:00.653Z,975.93
2017-12-11T02:22:00.666Z,975.88
2017-12-11T02:23:00.677Z,975.84
2017-12-11T02:24:00.699Z,975.96
2017-12-11T02:25:00.703Z,975.97
2017-12-11T02:26:00.726Z,976.02
2017-12-11T02:27:00.736Z,976.02
2017-12-11T02:28:00.751Z,975.97
2017-12-11T02:29:00.765Z,976.12
2017-12-11T02:30:00.784Z,976
2017-12-11T02:31:00.791Z,976.06
2017-12-11T02:32:00.809Z,976
2017-12-11T02:33:00.821Z,976.03
2017-12-11T02:34:00.835Z,976.06
2017-12-11T02:35:00.844Z,976.1
2017-12-11T02:36:00.860Z,976.08
2017-12-11T02:37:00.873Z,976.16
2017-12-11T02:38:00.895Z,976.1
2017-12-11T02:39:00.906Z,976.16
2017-12-11T02:40:00.928Z,976.13
2017-12-11T02:41:00.934Z,976.16
2017-12-11T02:42:00.958Z,976.09
2017-12-11T02:43:00.966Z,976.1
2017-12-11T02:44:00.977Z,976.08
2017-12-11T02:45:01.004Z,976.14
2017-12-11T02:46:01.012Z,976.01
2017-12-11T02:47:01.028Z,976.16
2017-12-11T02:48:01.031Z,976.1
2017-12-11T02:49:01.045Z,976.06
2017-12-11T02:50:01.059Z,976.08
2017-12-11T02:51:01.076Z,976.05
2017-12-11T02:53:01.111Z,976.09
2017-12-11T02:54:01.118Z,976.09
2017-12-11T02:55:01.140Z,976.08
2017-12-11T02:56:01.155Z,976.15
2017-12-11T02:57:01.165Z,976.19
2017-12-11T02:58:01.182Z,976.12
2017-12-11T02:59:01.194Z,976.14
2017-12-11T03:00:01.219Z,976.12
2017-12-11T03:01:01.231Z,976.1
2017-12-11T03:02:01.234Z,976.22
2017-12-11T03:03:01.258Z,976.16
2017-12-11T03:04:01.270Z,976.19
2017-12-11T03:05:01.278Z,976.22
2017-12-11T03:06:01.299Z,976.19
2017-12-11T03:07:01.306Z,976.23
2017-12-11T03:09:01.336Z,976.21
2017-12-11T03:10:01.350Z,976.29
2017-12-11T03:11:01.371Z,976.26
2017-12-11T03:12:01.384Z,976.33
2017-12-11T03:13:01.404Z,976.28
2017-12-11T03:14:01.414Z,976.25
2017-12-11T03:15:01.434Z,976.18
2017-12-11T03:16:01.464Z,976.21
2017-12-11T03:17:01.454Z,976.19
2017-12-11T03:18:01.488Z,976.16
2017-12-11T03:19:01.496Z,976.18
2017-12-11T03:20:01.500Z,976.19
2017-12-11T03:21:01.517Z,976.2
2017-12-11T03:22:01.536Z,976.24
2017-12-11T03:23:01.551Z,976.21
2017-12-11T03:25:01.573Z,976.2
2017-12-11T03:26:01.590Z,976.24
2017-12-11T03:27:01.610Z,976.28
2017-12-11T03:28:01.612Z,976.19
2017-12-11T03:29:01.628Z,976.25
2017-12-11T03:30:01.653Z,976.21
2017-12-11T03:31:01.665Z,976.15
2017-12-11T03:32:01.678Z,976.18
2017-12-11T03:33:01.686Z,976.13
2017-12-11T03:34:01.706Z,976.22
2017-12-11T03:35:01.722Z,976.19
2017-12-11T03:36:01.738Z,976.26
2017-12-11T03:37:01.745Z,976.28
2017-12-11T03:38:01.761Z,976.28
2017-12-11T03:39:01.782Z,976.28
2017-12-11T03:41:01.811Z,976.28
2017-12-11T03:42:01.830Z,976.29
2017-12-11T03:43:01.838Z,976.38
2017-12-11T03:44:01.854Z,976.45
2017-12-11T03:45:01.870Z,976.46
2017-12-11T03:46:01.889Z,976.53
2017-12-11T03:47:01.904Z,976.55
2017-12-11T03:48:01.908Z,976.57
2017-12-11T03:49:01.934Z,976.62
2017-12-11T03:50:01.948Z,976.66
2017-12-11T03:51:01.958Z,976.68
2017-12-11T03:52:01.973Z,976.79
2017-12-11T03:53:01.990Z,976.77
2017-12-11T03:54:02.004Z,976.87
2017-12-11T03:56:02.028Z,976.88
2017-12-11T03:57:02.046Z,976.87
2017-12-11T03:58:02.066Z,976.92
2017-12-11T03:59:02.072Z,976.86
2017-12-11T04:00:02.098Z,976.78
2017-12-11T04:01:02.111Z,976.9
2017-12-11T04:02:02.120Z,976.93
2017-12-11T04:03:02.131Z,976.98
2017-12-11T04:04:02.151Z,976.93
2017-12-11T04:05:02.172Z,976.94
2017-12-11T04:06:02.183Z,976.86
2017-12-11T04:07:02.192Z,976.92
2017-12-11T04:08:02.212Z,976.9
2017-12-11T04:09:02.225Z,976.89
2017-12-11T04:10:02.247Z,976.95
2017-12-11T04:11:02.263Z,977.04
2017-12-11T04:12:02.270Z,977.1
2017-12-11T04:13:02.281Z,977.15
2017-12-11T04:14:02.307Z,977.26
2017-12-11T04:15:02.321Z,977.3
2017-12-11T04:16:02.325Z,977.29
2017-12-11T04:17:02.341Z,977.39
2017-12-11T04:18:02.367Z,977.5
2017-12-11T04:19:02.381Z,977.52
2017-12-11T04:20:02.386Z,977.61
2017-12-11T04:21:02.407Z,977.65
2017-12-11T04:22:02.416Z,977.64
2017-12-11T04:23:02.437Z,977.77
2017-12-11T04:24:02.447Z,977.83
2017-12-11T04:25:02.473Z,977.81
2017-12-11T04:26:02.486Z,977.82
2017-12-11T04:28:02.511Z,977.96
2017-12-11T04:29:02.522Z,977.93
2017-12-11T04:30:02.544Z,977.96
2017-12-11T04:31:02.552Z,978.07
2017-12-11T04:32:02.578Z,978.07
2017-12-11T04:33:02.582Z,978.14
2017-12-11T04:34:02.597Z,978.15
2017-12-11T04:35:02.617Z,978.19
2017-12-11T04:36:02.632Z,978.2
2017-12-11T04:37:02.653Z,978.24
2017-12-11T04:38:02.657Z,978.32
2017-12-11T04:39:02.680Z,978.4
2017-12-11T04:40:02.699Z,978.34
2017-12-11T04:41:02.713Z,978.39
2017-12-11T04:42:02.729Z,978.46
2017-12-11T04:44:02.759Z,978.56
2017-12-11T04:45:02.769Z,978.54
2017-12-11T04:46:02.779Z,978.64
2017-12-11T04:47:02.800Z,978.67
2017-12-11T04:48:02.819Z,978.63
2017-12-11T04:49:02.824Z,978.69
2017-12-11T04:50:02.839Z,978.78
2017-12-11T04:51:02.861Z,978.78
2017-12-11T04:52:02.869Z,978.83
2017-12-11T04:53:02.896Z,978.87
2017-12-11T04:54:02.904Z,978.91
2017-12-11T04:55:02.920Z,978.94
2017-12-11T04:56:02.936Z,979.01
2017-12-11T04:57:02.945Z,979.06
2017-12-11T04:58:02.965Z,979.14
2017-12-11T05:00:02.999Z,979.28
2017-12-11T05:01:03.006Z,979.32
2017-12-11T05:02:03.021Z,979.33
2017-12-11T05:03:03.046Z,979.39
2017-12-11T05:04:03.060Z,979.42
2017-12-11T05:05:03.077Z,979.44
2017-12-11T05:06:03.081Z,979.53
2017-12-11T05:07:03.107Z,979.57
2017-12-11T05:08:03.116Z,979.56
2017-12-11T05:09:03.128Z,979.56
2017-12-11T05:10:03.142Z,979.56
2017-12-11T05:11:03.157Z,979.52
2017-12-11T05:12:03.180Z,979.55
2017-12-11T05:13:03.192Z,979.48
2017-12-11T05:14:03.209Z,979.53
2017-12-11T05:16:03.244Z,979.62
2017-12-11T05:17:03.253Z,979.72
2017-12-11T05:18:03.267Z,979.79
2017-12-11T05:19:03.286Z,979.87
2017-12-11T05:20:03.299Z,979.89
2017-12-11T05:21:03.313Z,979.88
2017-12-11T05:22:03.331Z,979.93
2017-12-11T05:23:03.344Z,979.99
2017-12-11T05:24:03.360Z,979.95
2017-12-11T05:25:03.378Z,980.06
2017-12-11T05:26:03.396Z,980.04
2017-12-11T05:27:03.408Z,980.06
2017-12-11T05:28:03.427Z,980.03
2017-12-11T05:29:03.443Z,980.06
2017-12-11T05:31:03.463Z,980.02
2017-12-11T05:32:03.478Z,980.06
2017-12-11T05:33:03.497Z,980.03
2017-12-11T05:34:03.516Z,980.11
2017-12-11T05:35:03.534Z,980.15
2017-12-11T05:36:03.543Z,980.21
2017-12-11T05:37:03.559Z,980.2
2017-12-11T05:38:03.620Z,980.11
2017-12-11T05:39:03.584Z,980.13
2017-12-11T05:40:03.610Z,980.24
2017-12-11T05:41:03.620Z,980.16
2017-12-11T05:42:03.631Z,980.14
2017-12-11T05:43:03.651Z,980.1
2017-12-11T05:44:03.671Z,980.12
2017-12-11T05:45:03.683Z,980.05
2017-12-11T05:46:03.702Z,980
2017-12-11T05:47:03.719Z,980
2017-12-11T05:48:03.726Z,980.02
2017-12-11T05:49:03.748Z,980.03
2017-12-11T05:50:03.752Z,980.11
2017-12-11T05:51:03.778Z,980.08
2017-12-11T05:52:03.793Z,980.13
2017-12-11T05:53:03.809Z,980.12
2017-12-11T05:54:03.824Z,980.11
2017-12-11T05:55:03.839Z,980.03
2017-12-11T05:56:03.854Z,980.05
2017-12-11T05:57:03.866Z,980.11
2017-12-11T05:58:03.879Z,979.98
2017-12-11T05:59:03.889Z,980.08
2017-12-11T06:00:03.904Z,980.09
2017-12-11T06:01:03.929Z,980.03
2017-12-11T06:03:03.961Z,980.17
2017-12-11T06:04:03.966Z,980.15
2017-12-11T06:05:03.986Z,980.27
2017-12-11T06:06:04.007Z,980.28
2017-12-11T06:07:04.017Z,980.28
2017-12-11T06:08:04.037Z,980.29
2017-12-11T06:09:04.041Z,980.26
2017-12-11T06:10:04.064Z,980.33
2017-12-11T06:11:04.082Z,980.35
2017-12-11T06:12:04.086Z,980.35
2017-12-11T06:13:04.101Z,980.38
2017-12-11T06:14:04.123Z,980.3
2017-12-11T06:15:04.132Z,980.32
2017-12-11T06:16:04.157Z,980.22
2017-12-11T06:17:04.162Z,980.31
2017-12-11T06:19:04.203Z,980.45
2017-12-11T06:20:04.213Z,980.52
2017-12-11T06:21:04.228Z,980.55
2017-12-11T06:22:04.243Z,980.59
2017-12-11T06:23:04.256Z,980.56
2017-12-11T06:24:04.277Z,980.6
2017-12-11T06:25:04.291Z,980.59
2017-12-11T06:26:04.306Z,980.6
2017-12-11T06:27:04.312Z,980.65
2017-12-11T06:28:04.333Z,980.69
2017-12-11T06:29:04.343Z,980.72
2017-12-11T06:30:04.362Z,980.83
2017-12-11T06:31:04.378Z,980.87
2017-12-11T06:32:04.494Z,980.9
2017-12-11T06:33:04.403Z,980.9
2017-12-11T06:35:04.438Z,981.09
2017-12-11T06:36:04.453Z,981.17
2017-12-11T06:37:04.468Z,981.19
2017-12-11T06:38:04.487Z,981.16
2017-12-11T06:39:04.498Z,981.24
2017-12-11T06:40:04.511Z,981.23
2017-12-11T06:41:04.528Z,981.27
2017-12-11T06:42:04.543Z,981.36
2017-12-11T06:43:04.558Z,981.38
2017-12-11T06:44:04.573Z,981.43
2017-12-11T06:45:04.585Z,981.45
2017-12-11T06:46:04.607Z,981.51
2017-12-11T06:47:04.615Z,981.57
2017-12-11T06:48:04.636Z,981.57
2017-12-11T06:49:04.647Z,981.55
2017-12-11T06:51:04.677Z,981.64
2017-12-11T06:52:04.698Z,981.71
2017-12-11T06:53:04.711Z,981.7
2017-12-11T06:54:04.720Z,981.71
2017-12-11T06:55:04.731Z,981.74
2017-12-11T06:56:04.745Z,981.79
2017-12-11T06:57:04.771Z,981.75
2017-12-11T06:58:04.785Z,981.71
2017-12-11T06:59:04.797Z,981.65
2017-12-11T07:00:04.810Z,981.67
2017-12-11T07:01:04.827Z,981.73
2017-12-11T07:02:04.835Z,981.76
2017-12-11T07:03:04.851Z,981.71
2017-12-11T07:04:04.866Z,981.8
2017-12-11T07:06:04.900Z,981.78
2017-12-11T07:07:04.910Z,981.76
2017-12-11T07:08:04.936Z,981.74
2017-12-11T07:09:04.946Z,981.77
2017-12-11T07:10:04.963Z,981.77
2017-12-11T07:11:04.980Z,981.72
2017-12-11T07:12:04.984Z,981.74
2017-12-11T07:13:05.006Z,981.67
2017-12-11T07:14:05.018Z,981.79
2017-12-11T07:15:05.034Z,981.78
2017-12-11T07:16:05.049Z,981.86
2017-12-11T07:17:05.066Z,981.87
2017-12-11T07:18:05.080Z,981.91
2017-12-11T07:19:05.099Z,981.91
2017-12-11T07:20:05.108Z,981.96
2017-12-11T07:21:05.132Z,981.96
2017-12-11T07:22:05.189Z,981.96
2017-12-11T07:23:05.158Z,982
2017-12-11T07:24:05.171Z,982.03
2017-12-11T07:25:05.189Z,982.06
2017-12-11T07:26:05.198Z,982.07
2017-12-11T07:27:05.207Z,982.13
2017-12-11T07:28:05.232Z,982.16
2017-12-11T07:29:05.243Z,982.11
2017-12-11T07:30:05.252Z,982.15
2017-12-11T07:31:05.281Z,982.12
2017-12-11T07:32:05.290Z,982.15
2017-12-11T07:33:05.299Z,982.21
2017-12-11T07:34:05.319Z,982.25
2017-12-11T07:35:05.334Z,982.27
2017-12-11T07:36:05.349Z,982.32
2017-12-11T07:38:05.372Z,982.33
2017-12-11T07:39:05.388Z,982.2
2017-12-11T07:40:05.404Z,982.32
2017-12-11T07:41:05.425Z,982.25
2017-12-11T07:42:05.438Z,982.26
2017-12-11T07:43:05.497Z,982.26
2017-12-11T07:44:05.466Z,982.29
2017-12-11T07:45:05.478Z,982.25
2017-12-11T07:46:05.497Z,982.24
2017-12-11T07:47:05.506Z,982.2
2017-12-11T07:48:05.522Z,982.18
2017-12-11T07:49:05.530Z,982.25
2017-12-11T07:50:05.551Z,982.23
2017-12-11T07:51:05.564Z,982.27
2017-12-11T07:52:05.584Z,982.25
2017-12-11T07:54:05.613Z,982.33
2017-12-11T07:55:05.619Z,982.31
2017-12-11T07:56:05.640Z,982.28
2017-12-11T07:57:05.653Z,982.27
2017-12-11T07:58:05.667Z,982.27
2017-12-11T07:59:05.683Z,982.34
2017-12-11T08:00:05.692Z,982.35
2017-12-11T08:01:05.714Z,982.37
2017-12-11T08:02:05.733Z,982.32
2017-12-11T08:03:05.747Z,982.32
2017-12-11T08:04:05.757Z,982.35
2017-12-11T08:05:05.774Z,982.38
2017-12-11T08:06:05.792Z,982.39
2017-12-11T08:07:05.802Z,982.44
2017-12-11T08:08:05.822Z,982.48
2017-12-11T08:10:05.842Z,982.53
2017-12-11T08:11:05.867Z,982.51
2017-12-11T08:12:05.879Z,982.56
2017-12-11T08:13:05.892Z,982.58
2017-12-11T08:14:05.913Z,982.62
2017-12-11T08:15:05.921Z,982.65
2017-12-11T08:16:05.944Z,982.67
2017-12-11T08:17:05.954Z,982.71
2017-12-11T08:18:05.974Z,982.71
2017-12-11T08:19:05.982Z,982.67
2017-12-11T08:20:06.003Z,982.69
2017-12-11T08:21:06.015Z,982.66
2017-12-11T08:22:06.034Z,982.63
2017-12-11T08:23:06.080Z,982.65
2017-12-11T08:24:06.059Z,982.65
2017-12-11T08:26:06.089Z,982.58
2017-12-11T08:27:06.100Z,982.57
2017-12-11T08:28:06.116Z,982.67
2017-12-11T08:29:06.130Z,982.72
2017-12-11T08:30:06.145Z,982.73
2017-12-11T08:31:06.171Z,982.74
2017-12-11T08:32:06.182Z,982.76
2017-12-11T08:33:06.199Z,982.79
2017-12-11T08:34:06.213Z,982.79
2017-12-11T08:35:06.238Z,982.81
2017-12-11T08:36:06.249Z,982.87
2017-12-11T08:37:06.257Z,982.86
2017-12-11T08:38:06.272Z,982.84
2017-12-11T08:39:06.289Z,982.77
2017-12-11T08:41:06.325Z,982.77
2017-12-11T08:42:06.334Z,982.65
2017-12-11T08:43:06.349Z,982.57
2017-12-11T08:44:06.368Z,982.52
2017-12-11T08:45:06.377Z,982.51
2017-12-11T08:46:06.404Z,982.49
2017-12-11T08:47:06.418Z,982.56
2017-12-11T08:48:06.427Z,982.63
2017-12-11T08:49:06.442Z,982.71
2017-12-11T08:50:06.459Z,982.78
2017-12-11T08:51:06.473Z,982.83
2017-12-11T08:52:06.491Z,982.82
2017-12-11T08:53:06.504Z,982.79
2017-12-11T08:54:06.526Z,982.79
2017-12-11T08:55:06.542Z,982.75
2017-12-11T08:56:06.551Z,982.78
2017-12-11T08:57:06.560Z,982.75
2017-12-11T08:58:06.582Z,982.71
2017-12-11T08:59:06.594Z,982.72
2017-12-11T09:00:06.613Z,982.72
2017-12-11T09:01:06.624Z,982.82
2017-12-11T09:02:06.648Z,982.89
2017-12-11T09:03:06.667Z,982.91
2017-12-11T09:04:06.675Z,982.89
2017-12-11T09:05:06.698Z,982.9
2017-12-11T09:06:06.707Z,982.84
2017-12-11T09:07:06.718Z,982.88
2017-12-11T09:08:06.738Z,982.93
2017-12-11T09:09:06.769Z,982.94
2017-12-11T09:10:06.777Z,982.99
2017-12-11T09:11:06.780Z,983.01
2017-12-11T09:13:06.822Z,982.98
2017-12-11T09:14:06.827Z,982.97
2017-12-11T09:15:06.842Z,982.97
2017-12-11T09:16:06.859Z,983.05
2017-12-11T09:17:06.875Z,982.99
2017-12-11T09:18:06.900Z,983.01
2017-12-11T09:19:06.916Z,983.02
2017-12-11T09:20:06.925Z,983.03
2017-12-11T09:21:06.942Z,983.08
2017-12-11T09:22:06.952Z,983.08
2017-12-11T09:23:06.974Z,983.1
2017-12-11T09:24:06.994Z,983.06
2017-12-11T09:25:07.006Z,983.08
2017-12-11T09:26:07.026Z,983.1
2017-12-11T09:27:07.035Z,983.16
2017-12-11T09:29:07.070Z,983.26
2017-12-11T09:30:07.082Z,983.36
2017-12-11T09:31:07.104Z,983.41
2017-12-11T09:32:07.112Z,983.42
2017-12-11T09:33:07.124Z,983.45
2017-12-11T09:34:07.140Z,983.47
2017-12-11T09:35:07.167Z,983.49
2017-12-11T09:36:07.179Z,983.45
2017-12-11T09:37:07.197Z,983.54
2017-12-11T09:38:07.215Z,983.6
2017-12-11T09:39:07.231Z,983.62
2017-12-11T09:40:07.249Z,983.65
2017-12-11T09:41:07.256Z,983.64
2017-12-11T09:42:07.273Z,983.69
2017-12-11T09:43:07.289Z,983.71
2017-12-11T09:45:07.324Z,983.71
2017-12-11T09:46:07.329Z,983.71
2017-12-11T09:47:07.353Z,983.6
2017-12-11T09:48:07.366Z,983.58
2017-12-11T09:49:07.380Z,983.52
2017-12-11T09:50:07.393Z,983.5
2017-12-11T09:51:07.420Z,983.51
2017-12-11T09:52:07.435Z,983.56
2017-12-11T09:53:07.449Z,983.58
2017-12-11T09:54:07.461Z,983.6
2017-12-11T09:55:07.472Z,983.56
2017-12-11T09:56:07.491Z,983.54
2017-12-11T09:57:07.509Z,983.51
2017-12-11T09:58:07.529Z,983.49
2017-12-11T09:59:07.540Z,983.39
2017-12-11T10:01:07.571Z,983.35
2017-12-11T10:02:07.583Z,983.41
2017-12-11T10:03:07.598Z,983.39
2017-12-11T10:04:07.613Z,983.3
2017-12-11T10:05:07.635Z,983.21
2017-12-11T10:06:07.649Z,983.21
2017-12-11T10:07:07.666Z,983.15
2017-12-11T10:08:07.686Z,983.12
2017-12-11T10:09:07.702Z,983.12
2017-12-11T10:10:07.715Z,983.1
2017-12-11T10:11:07.724Z,983.18
2017-12-11T10:12:07.743Z,983.28
2017-12-11T10:13:07.760Z,983.31
2017-12-11T10:14:07.781Z,983.33
2017-12-11T10:16:07.805Z,983.21
2017-12-11T10:17:07.824Z,983.19
2017-12-11T10:18:07.846Z,983.18
2017-12-11T10:19:07.861Z,983.17
2017-12-11T10:20:07.878Z,983.17
2017-12-11T10:21:07.883Z,983.22
2017-12-11T10:22:07.909Z,983.26
2017-12-11T10:23:07.921Z,983.25
2017-12-11T10:24:07.929Z,983.17
2017-12-11T10:25:07.951Z,983.11
2017-12-11T10:26:07.967Z,983.1
2017-12-11T10:27:07.982Z,983.14
2017-12-11T10:28:07.995Z,983.21
2017-12-11T10:29:08.015Z,983.19
2017-12-11T10:30:08.036Z,983.12
2017-12-11T10:31:08.047Z,983.08
2017-12-11T10:32:08.064Z,983.05
2017-12-11T10:33:08.074Z,982.99
2017-12-11T10:34:08.094Z,982.98
2017-12-11T10:35:08.116Z,983.04
2017-12-11T10:36:08.132Z,983.11
2017-12-11T10:37:08.147Z,983.08
2017-12-11T10:38:08.153Z,983.09
2017-12-11T10:39:08.173Z,983.12
2017-12-11T10:40:08.194Z,983.16
2017-12-11T10:41:08.211Z,983.11
2017-12-11T10:42:08.222Z,983.09
2017-12-11T10:43:08.242Z,983.11
2017-12-11T10:44:08.249Z,983.13
2017-12-11T10:45:08.265Z,983.14
2017-12-11T10:46:08.285Z,983.13
2017-12-11T10:48:08.313Z,983.07
2017-12-11T10:49:08.335Z,982.98
2017-12-11T10:50:08.347Z,982.97
2017-12-11T10:51:08.369Z,982.96
2017-12-11T10:52:08.386Z,982.94
2017-12-11T10:53:08.393Z,982.96
2017-12-11T10:54:08.408Z,982.97
2017-12-11T10:55:08.433Z,982.96
2017-12-11T10:56:08.440Z,983.03
2017-12-11T10:57:08.455Z,983.03
2017-12-11T10:58:08.479Z,983.02
2017-12-11T10:59:08.490Z,983.02
2017-12-11T11:00:08.507Z,983.06
2017-12-11T11:01:08.518Z,983.04
2017-12-11T11:02:08.540Z,983.05
2017-12-11T11:04:08.566Z,983.14
2017-12-11T11:05:08.587Z,983.13
2017-12-11T11:06:08.596Z,983.19
2017-12-11T11:07:08.618Z,983.19
2017-12-11T11:08:08.634Z,983.09
2017-12-11T11:09:08.652Z,983.15
2017-12-11T11:10:08.671Z,983.08
2017-12-11T11:11:08.682Z,982.99
2017-12-11T11:12:08.697Z,982.9
2017-12-11T11:13:08.713Z,982.85
2017-12-11T11:14:08.730Z,982.91
2017-12-11T11:15:08.739Z,982.96
2017-12-11T11:16:08.759Z,982.97
2017-12-11T11:17:08.771Z,982.91
2017-12-11T11:18:08.794Z,982.94
2017-12-11T11:20:08.817Z,982.94
2017-12-11T11:21:08.839Z,982.95
2017-12-11T11:22:08.849Z,982.97
2017-12-11T11:23:08.875Z,982.93
2017-12-11T11:24:08.887Z,982.92
2017-12-11T11:25:08.903Z,982.86
2017-12-11T11:26:08.914Z,982.8
2017-12-11T11:27:08.935Z,982.8
2017-12-11T11:28:08.947Z,982.8
2017-12-11T11:29:08.966Z,982.82
2017-12-11T11:30:08.988Z,982.79
2017-12-11T11:31:08.996Z,982.78
2017-12-11T11:32:09.017Z,982.78
2017-12-11T11:33:09.027Z,982.77
2017-12-11T11:34:09.048Z,982.74
2017-12-11T11:36:09.074Z,982.75
2017-12-11T11:37:09.096Z,982.72
2017-12-11T11:38:09.106Z,982.79
2017-12-11T11:39:09.121Z,982.74
2017-12-11T11:40:09.138Z,982.8
2017-12-11T11:41:09.151Z,982.82
2017-12-11T11:42:09.183Z,982.86
2017-12-11T11:43:09.192Z,982.84
2017-12-11T11:44:09.196Z,982.85
2017-12-11T11:45:09.221Z,982.84
2017-12-11T11:46:09.231Z,982.89
2017-12-11T11:47:09.253Z,982.92
2017-12-11T11:48:09.263Z,982.87
2017-12-11T11:49:09.275Z,982.87
2017-12-11T11:51:09.305Z,982.72
2017-12-11T11:52:09.328Z,982.73
2017-12-11T11:53:09.338Z,982.71
2017-12-11T11:54:09.360Z,982.75
2017-12-11T11:55:09.376Z,982.7
2017-12-11T11:56:09.389Z,982.72
2017-12-11T11:57:09.401Z,982.74
2017-12-11T11:58:09.417Z,982.65
2017-12-11T11:59:09.441Z,982.54
2017-12-11T12:00:09.452Z,982.5
2017-12-11T12:01:09.468Z,982.51
2017-12-11T12:02:09.483Z,982.54
2017-12-11T12:03:09.494Z,982.64
2017-12-11T12:04:09.520Z,982.68
2017-12-11T12:05:09.530Z,982.64
2017-12-11T12:06:09.543Z,982.49
2017-12-11T12:07:09.572Z,982.38
2017-12-11T12:08:09.579Z,982.29
2017-12-11T12:09:09.594Z,982.17
2017-12-11T12:10:09.606Z,982.14
2017-12-11T12:11:09.624Z,982.09
2017-12-11T12:12:09.640Z,982.08
2017-12-11T12:13:09.650Z,982.15
2017-12-11T12:14:09.665Z,982.23
2017-12-11T12:15:09.698Z,982.25
2017-12-11T12:16:09.697Z,982.21
2017-12-11T12:17:09.723Z,982.15
2017-12-11T12:18:09.732Z,982.15
2017-12-11T12:19:09.754Z,982.12
2017-12-11T12:20:09.770Z,982.16
2017-12-11T12:21:09.775Z,982.17
2017-12-11T12:23:09.809Z,982.29
2017-12-11T12:24:09.832Z,982.27
2017-12-11T12:25:09.846Z,982.31
2017-12-11T12:26:09.862Z,982.3
2017-12-11T12:27:09.872Z,982.34
2017-12-11T12:28:09.890Z,982.27
2017-12-11T12:29:09.903Z,982.16
2017-12-11T12:30:09.925Z,982.11
2017-12-11T12:31:09.941Z,982.09
2017-12-11T12:32:09.956Z,982.14
2017-12-11T12:33:09.968Z,982.17
2017-12-11T12:34:09.976Z,982.19
2017-12-11T12:35:09.992Z,982.18
2017-12-11T12:36:10.008Z,982.17
2017-12-11T12:37:10.028Z,982.15
2017-12-11T12:39:10.061Z,982
2017-12-11T12:40:10.075Z,981.99
2017-12-11T12:41:10.096Z,982.03
2017-12-11T12:42:10.105Z,982.12
2017-12-11T12:43:10.117Z,982.19
2017-12-11T12:44:10.133Z,982.2
2017-12-11T12:45:10.159Z,982.21
2017-12-11T12:46:10.165Z,982.25
2017-12-11T12:47:10.186Z,982.23
2017-12-11T12:48:10.194Z,982.27
2017-12-11T12:49:10.221Z,982.32
2017-12-11T12:50:10.233Z,982.35
2017-12-11T12:51:10.248Z,982.37
2017-12-11T12:52:10.266Z,982.38
2017-12-11T12:53:10.283Z,982.4
2017-12-11T12:55:10.302Z,982.32
2017-12-11T12:56:10.322Z,982.27
2017-12-11T12:57:10.342Z,982.26
2017-12-11T12:58:10.359Z,982.23
2017-12-11T12:59:10.371Z,982.29
2017-12-11T13:00:10.384Z,982.28
2017-12-11T13:01:10.404Z,982.21
2017-12-11T13:02:10.422Z,982.18
2017-12-11T13:03:10.434Z,982.11
2017-12-11T13:04:10.453Z,982.19
2017-12-11T13:05:10.463Z,982.2
2017-12-11T13:06:10.477Z,982.16
2017-12-11T13:07:10.494Z,982.12
2017-12-11T13:08:10.516Z,982.03
2017-12-11T13:09:10.524Z,981.97
2017-12-11T13:11:10.561Z,981.99
2017-12-11T13:12:10.571Z,982.04
2017-12-11T13:13:10.586Z,982.09
2017-12-11T13:14:10.598Z,982.03